createdAt,value
2019-01-24T00:01:38.110Z,46.97
2019-01-24T00:06:39.442Z,42.87
2019-01-24T00:11:40.830Z,42.90
2019-01-24T00:16:42.234Z,39.87
2019-01-24T00:21:43.638Z,40.80
2019-01-24T00:26:45.027Z,39.80
2019-01-24T00:31:46.448Z,38.53
2019-01-24T00:36:47.867Z,44.17
2019-01-24T00:41:49.296Z,39.53
2019-01-24T00:46:50.750Z,40.53
2019-01-24T00:51:52.155Z,37.27
2019-01-24T00:56:53.537Z,40.57
2019-01-24T01:01:55.188Z,42.17
2019-01-24T01:06:56.646Z,40.97
2019-01-24T01:11:58.031Z,41.77
2019-01-24T01:16:59.459Z,43.20
2019-01-24T01:22:00.939Z,40.73
2019-01-24T01:27:02.618Z,43.47
2019-01-24T01:32:04.318Z,43.67
2019-01-24T01:37:05.754Z,44.67
2019-01-24T01:42:07.224Z,45.97
2019-01-24T01:47:08.588Z,48.93
2019-01-24T01:52:09.958Z,45.87
2019-01-24T01:57:11.286Z,44.60
2019-01-24T02:02:12.690Z,48.73
2019-01-24T02:07:14.023Z,45.10
2019-01-24T02:12:15.398Z,49.77
2019-01-24T02:17:16.781Z,46.03
2019-01-24T02:22:18.218Z,42.30
2019-01-24T02:27:19.617Z,47.80
2019-01-24T02:32:22.022Z,48.60
2019-01-24T02:37:23.466Z,48.03
2019-01-24T02:42:24.899Z,49.40
2019-01-24T02:47:26.313Z,47.43
2019-01-24T02:52:27.727Z,49.97
2019-01-24T02:57:29.120Z,45.17
2019-01-24T03:02:30.460Z,46.47
2019-01-24T03:07:31.852Z,47.97
2019-01-24T03:12:33.183Z,47.33
2019-01-24T03:17:34.578Z,46.67
2019-01-24T03:22:36.239Z,48.63
2019-01-24T03:27:37.611Z,46.00
2019-01-24T03:32:38.949Z,49.23
2019-01-24T03:37:40.420Z,45.87
2019-01-24T03:42:42.232Z,52.93
2019-01-24T03:47:44.170Z,47.97
2019-01-24T03:52:45.858Z,47.87
2019-01-24T03:57:47.915Z,47.37
2019-01-24T04:02:49.324Z,52.20
2019-01-24T04:07:50.973Z,47.80
2019-01-24T04:12:52.334Z,47.40
2019-01-24T04:17:54.009Z,49.53
2019-01-24T04:22:55.347Z,50.67
2019-01-24T04:27:56.747Z,52.03
2019-01-24T04:32:58.206Z,47.10
2019-01-24T04:37:59.543Z,46.93
2019-01-24T04:43:01.795Z,48.50
2019-01-24T04:48:03.314Z,49.50
2019-01-24T04:53:04.695Z,48.53
2019-01-24T04:58:06.153Z,50.00
2019-01-24T05:03:08.116Z,47.53
2019-01-24T05:08:09.520Z,48.13
2019-01-24T05:13:10.827Z,47.47
2019-01-24T05:18:12.231Z,44.50
2019-01-24T05:23:13.603Z,42.50
2019-01-24T05:28:14.946Z,45.63
2019-01-24T05:33:16.286Z,43.87
2019-01-24T05:38:17.678Z,41.73
2019-01-24T05:43:19.015Z,41.90
2019-01-24T05:48:20.394Z,41.07
2019-01-24T05:53:21.774Z,40.60
2019-01-24T05:58:23.210Z,40.23
2019-01-24T06:03:24.607Z,35.93
2019-01-24T06:08:26.034Z,36.70
2019-01-24T06:13:27.436Z,38.67
2019-01-24T06:18:28.767Z,38.83
2019-01-24T06:23:30.279Z,34.77
2019-01-24T06:28:31.695Z,40.73
2019-01-24T06:33:33.093Z,35.77
2019-01-24T06:38:34.488Z,36.33
2019-01-24T06:43:35.887Z,34.47
2019-01-24T06:48:37.287Z,36.37
2019-01-24T06:53:39.779Z,34.43
2019-01-24T06:58:42.166Z,33.70
2019-01-24T07:03:43.499Z,36.47
2019-01-24T07:08:44.894Z,34.83
2019-01-24T07:13:46.330Z,39.77
2019-01-24T07:18:47.719Z,37.57
2019-01-24T07:23:49.059Z,35.43
2019-01-24T07:28:51.474Z,34.97
2019-01-24T07:33:52.808Z,36.03
2019-01-24T07:38:54.217Z,38.27
2019-01-24T07:43:55.663Z,35.83
2019-01-24T07:48:57.023Z,35.17
2019-01-24T07:53:58.387Z,37.73
2019-01-24T07:58:59.859Z,34.63
2019-01-24T08:04:01.410Z,35.90
2019-01-24T08:09:05.208Z,35.43
2019-01-24T08:14:06.698Z,37.23
2019-01-24T08:19:08.084Z,39.23
2019-01-24T08:24:09.444Z,34.43
2019-01-24T08:29:10.901Z,35.20
2019-01-24T08:34:12.266Z,36.70
2019-01-24T08:39:13.647Z,35.83
2019-01-24T08:44:15.082Z,37.23
2019-01-24T08:49:16.477Z,36.07
2019-01-24T08:54:17.907Z,38.70
2019-01-24T08:59:19.302Z,36.07
2019-01-24T09:04:20.645Z,37.87
2019-01-24T09:09:22.036Z,37.17
2019-01-24T09:14:23.467Z,38.23
2019-01-24T09:19:24.905Z,34.43
2019-01-24T09:24:26.299Z,36.10
2019-01-24T09:29:27.681Z,40.07
2019-01-24T09:34:29.047Z,39.10
2019-01-24T09:39:30.518Z,39.83
2019-01-24T09:44:31.852Z,43.80
2019-01-24T09:49:33.238Z,42.50
2019-01-24T09:54:34.698Z,39.20
2019-01-24T09:59:36.108Z,38.70
2019-01-24T10:04:37.542Z,37.43
2019-01-24T10:09:38.942Z,39.50
2019-01-24T10:14:40.389Z,37.10
2019-01-24T10:19:41.825Z,39.97
2019-01-24T10:24:43.187Z,38.67
2019-01-24T10:29:44.590Z,41.00
2019-01-24T10:34:46.725Z,40.47
2019-01-24T10:39:48.211Z,39.90
2019-01-24T10:44:49.582Z,41.27
2019-01-24T10:49:50.932Z,38.83
2019-01-24T10:54:52.303Z,41.20
2019-01-24T10:59:53.690Z,43.23
2019-01-24T11:04:55.123Z,41.23
2019-01-24T11:09:56.528Z,43.13
2019-01-24T11:14:58.002Z,42.00
2019-01-24T11:19:59.438Z,42.23
2019-01-24T11:25:00.802Z,41.83
2019-01-24T11:30:07.670Z,47.63
2019-01-24T11:35:14.054Z,41.90
2019-01-24T11:40:17.553Z,42.57
2019-01-24T11:45:26.930Z,43.37
2019-01-24T11:50:28.378Z,40.17
2019-01-24T11:55:29.776Z,43.57
2019-01-24T12:00:36.739Z,42.13
2019-01-24T12:05:38.107Z,44.33
2019-01-24T12:10:39.681Z,45.30
2019-01-24T12:15:41.125Z,41.20
2019-01-24T12:20:42.526Z,46.10
2019-01-24T12:25:43.866Z,46.10
2019-01-24T12:30:45.244Z,49.07
2019-01-24T12:35:46.608Z,46.20
2019-01-24T12:40:47.983Z,45.97
2019-01-24T12:45:49.318Z,45.77
2019-01-24T12:50:50.725Z,40.60
2019-01-24T12:55:52.151Z,36.40
2019-01-24T13:00:53.552Z,38.63
2019-01-24T13:05:54.902Z,50.13
2019-01-24T13:10:56.275Z,37.70
2019-01-24T13:15:57.737Z,37.53
2019-01-24T13:20:59.070Z,40.77
2019-01-24T13:26:00.455Z,37.20
2019-01-24T13:31:01.936Z,39.23
2019-01-24T13:36:03.369Z,33.33
2019-01-24T13:41:04.761Z,32.73
2019-01-24T13:46:06.218Z,29.37
2019-01-24T13:51:07.805Z,33.87
2019-01-24T13:56:09.370Z,32.67
2019-01-24T14:01:10.920Z,31.43
2019-01-24T14:06:12.279Z,33.13
2019-01-24T14:11:18.005Z,31.87
2019-01-24T14:16:17.072Z,29.93
2019-01-24T14:21:18.537Z,36.40
2019-01-24T14:26:19.893Z,34.07
2019-01-24T14:31:21.383Z,34.20
2019-01-24T14:36:25.369Z,31.97
2019-01-24T14:41:26.153Z,33.87
2019-01-24T14:46:27.583Z,35.03
2019-01-24T14:51:28.995Z,34.33
2019-01-24T14:56:30.442Z,34.33
2019-01-24T15:01:31.853Z,34.70
2019-01-24T15:06:33.275Z,34.87
2019-01-24T15:11:34.642Z,36.53
2019-01-24T15:16:36.002Z,40.93
2019-01-24T15:21:37.331Z,38.87
2019-01-24T15:26:38.741Z,39.57
2019-01-24T15:31:40.166Z,41.10
2019-01-24T15:36:41.558Z,41.70
2019-01-24T15:41:42.890Z,43.50
2019-01-24T15:46:45.315Z,39.60
2019-01-24T15:51:46.647Z,41.20
2019-01-24T15:56:48.031Z,44.67
2019-01-24T16:01:49.398Z,39.50
2019-01-24T16:06:50.796Z,37.13
2019-01-24T16:11:52.320Z,35.33
2019-01-24T16:16:53.670Z,42.23
2019-01-24T16:21:55.053Z,39.60
2019-01-24T16:26:56.430Z,37.07
2019-01-24T16:31:57.794Z,39.63
2019-01-24T16:36:59.330Z,40.23
2019-01-24T16:42:00.723Z,41.83
2019-01-24T16:47:02.292Z,37.87
2019-01-24T16:52:03.858Z,38.93
2019-01-24T16:57:05.225Z,41.70
2019-01-24T17:02:06.664Z,36.17
2019-01-24T17:07:08.139Z,39.70
2019-01-24T17:12:09.502Z,36.90
2019-01-24T17:17:10.890Z,44.30
2019-01-24T17:22:12.363Z,38.03
2019-01-24T17:27:13.791Z,36.63
2019-01-24T17:32:15.217Z,39.63
2019-01-24T17:37:16.675Z,37.80
2019-01-24T17:42:18.213Z,36.10
2019-01-24T17:47:19.554Z,40.97
2019-01-24T17:52:20.996Z,43.70
2019-01-24T17:57:22.390Z,41.13
2019-01-24T18:02:23.990Z,38.13
2019-01-24T18:07:26.256Z,41.60
2019-01-24T18:12:27.642Z,41.40
2019-01-24T18:17:29.098Z,40.43
2019-01-24T18:22:30.429Z,39.57
2019-01-24T18:27:31.812Z,39.20
2019-01-24T18:32:33.191Z,41.47
2019-01-24T18:37:34.622Z,36.90
2019-01-24T18:42:36.105Z,38.17
2019-01-24T18:47:37.578Z,38.10
2019-01-24T18:52:38.953Z,39.13
2019-01-24T18:57:40.288Z,39.23
2019-01-24T19:02:41.705Z,41.97
2019-01-24T19:07:43.350Z,42.17
2019-01-24T19:12:44.795Z,43.30
2019-01-24T19:17:46.996Z,41.77
2019-01-24T19:22:48.333Z,43.27
2019-01-24T19:27:49.910Z,36.97
2019-01-24T19:32:52.086Z,43.63
2019-01-24T19:37:53.674Z,41.27
2019-01-24T19:42:55.124Z,43.37
2019-01-24T19:47:56.603Z,43.10
2019-01-24T19:52:58.930Z,40.10
2019-01-24T19:58:00.474Z,40.60
2019-01-24T20:03:01.971Z,39.23
2019-01-24T20:08:04.411Z,42.83
2019-01-24T20:13:05.904Z,52.83
2019-01-24T20:18:07.647Z,45.13
2019-01-24T20:23:09.146Z,44.47
2019-01-24T20:28:10.631Z,46.57
2019-01-24T20:33:12.158Z,45.63
2019-01-24T20:38:13.523Z,44.80
2019-01-24T20:43:15.591Z,41.67
2019-01-24T20:48:17.020Z,42.47
2019-01-24T20:53:18.419Z,41.20
2019-01-24T20:58:19.918Z,43.33
2019-01-24T21:03:21.380Z,40.47
2019-01-24T21:08:22.842Z,45.77
2019-01-24T21:13:24.210Z,41.83
2019-01-24T21:18:26.614Z,46.93
2019-01-24T21:23:28.090Z,42.60
2019-01-24T21:28:29.601Z,41.37
2019-01-24T21:33:31.003Z,41.10
2019-01-24T21:38:32.428Z,41.70
2019-01-24T21:43:33.813Z,41.60
2019-01-24T21:48:35.202Z,47.83
2019-01-24T21:53:36.623Z,41.40
2019-01-24T21:58:38.037Z,42.70
2019-01-24T22:03:39.451Z,44.60
2019-01-24T22:08:41.038Z,47.03
2019-01-24T22:13:42.380Z,42.77
2019-01-24T22:18:43.771Z,42.67
2019-01-24T22:23:45.141Z,45.43
2019-01-24T22:28:46.480Z,47.73
2019-01-24T22:33:47.864Z,45.40
2019-01-24T22:38:49.201Z,43.60
2019-01-24T22:43:50.592Z,44.23
2019-01-24T22:48:51.935Z,43.97
2019-01-24T22:53:53.328Z,47.27
2019-01-24T22:58:54.683Z,45.17
2019-01-24T23:03:56.764Z,50.63
2019-01-24T23:08:58.071Z,44.30
2019-01-24T23:13:59.457Z,50.43
2019-01-24T23:19:00.836Z,44.93
2019-01-24T23:24:02.267Z,43.80
2019-01-24T23:29:04.057Z,44.27
2019-01-24T23:34:05.436Z,46.50
2019-01-24T23:39:07.319Z,46.23
2019-01-24T23:44:08.671Z,45.93
2019-01-24T23:49:10.055Z,46.03
2019-01-24T23:54:11.459Z,45.30
2019-01-24T23:59:12.896Z,49.10
